createdAt,value
2019-01-16T00:01:34.370Z,5.75
2019-01-16T00:10:59.215Z,5.72
2019-01-16T00:20:11.744Z,5.74
2019-01-16T00:24:33.676Z,5.74
2019-01-16T00:28:52.208Z,5.73
2019-01-16T00:33:18.225Z,5.73
2019-01-16T00:37:41.428Z,5.71
2019-01-16T00:42:07.687Z,5.74
2019-01-16T00:46:36.711Z,5.74
2019-01-16T00:50:58.610Z,5.75
2019-01-16T00:55:47.404Z,5.75
2019-01-16T01:00:10.769Z,5.78
2019-01-16T01:04:48.943Z,5.80
2019-01-16T01:09:10.378Z,5.80
2019-01-16T01:18:32.221Z,5.80
2019-01-16T01:22:55.498Z,5.80
2019-01-16T01:27:25.412Z,5.80
2019-01-16T01:36:43.582Z,5.84
2019-01-16T01:41:29.617Z,5.85
2019-01-16T01:46:14.166Z,5.87
2019-01-16T01:50:32.368Z,5.90
2019-01-16T02:00:02.465Z,5.99
2019-01-16T02:04:34.737Z,6.01
2019-01-16T02:08:56.715Z,6.07
2019-01-16T02:13:59.289Z,6.11
2019-01-16T02:18:28.778Z,6.12
2019-01-16T02:23:08.607Z,6.13
2019-01-16T02:36:16.716Z,6.14
2019-01-16T02:40:57.929Z,6.16
2019-01-16T02:54:37.946Z,6.20
2019-01-16T02:58:52.581Z,6.23
2019-01-16T03:26:15.075Z,6.23
2019-01-16T03:30:45.821Z,6.24
2019-01-16T03:35:22.883Z,6.26
2019-01-16T03:39:58.016Z,6.26
2019-01-16T03:44:21.514Z,6.28
2019-01-16T03:48:43.362Z,6.29
2019-01-16T04:02:23.693Z,6.28
2019-01-16T04:06:37.151Z,6.28
2019-01-16T04:11:18.163Z,6.31
2019-01-16T04:15:59.298Z,6.32
2019-01-16T04:24:40.821Z,6.32
2019-01-16T04:29:21.938Z,6.34
2019-01-16T04:33:54.010Z,6.38
2019-01-16T04:38:35.189Z,6.39
2019-01-16T04:42:58.573Z,6.38
2019-01-16T04:51:58.266Z,6.43
2019-01-16T04:56:33.744Z,6.43
2019-01-16T05:01:12.377Z,6.43
2019-01-16T05:09:42.571Z,6.44
2019-01-16T05:14:36.392Z,6.43
2019-01-16T05:19:17.153Z,6.43
2019-01-16T05:23:42.143Z,6.41
2019-01-16T05:28:11.429Z,6.43
2019-01-16T05:49:52.985Z,6.32
2019-01-16T05:54:14.936Z,6.28
2019-01-16T05:59:00.406Z,6.27
2019-01-16T06:03:13.724Z,6.27
2019-01-16T06:07:39.575Z,6.27
2019-01-16T06:12:01.310Z,6.26
2019-01-16T06:16:33.703Z,6.27
2019-01-16T06:21:00.025Z,6.32
2019-01-16T06:25:26.895Z,6.32
2019-01-16T06:29:56.405Z,6.32
2019-01-16T06:34:18.050Z,6.32
2019-01-16T06:38:39.737Z,6.35
2019-01-16T06:43:02.964Z,6.34
2019-01-16T06:47:16.194Z,6.35
2019-01-16T06:51:42.821Z,6.34
2019-01-16T06:56:08.616Z,6.33
2019-01-16T07:09:27.521Z,6.35
2019-01-16T07:13:53.478Z,6.36
2019-01-16T07:18:19.790Z,6.35
2019-01-16T07:27:35.328Z,6.38
2019-01-16T07:32:46.833Z,6.37
2019-01-16T07:37:19.507Z,6.37
2019-01-16T07:41:49.330Z,6.40
2019-01-16T07:51:39.468Z,6.43
2019-01-16T08:01:11.755Z,6.40
2019-01-16T08:05:47.202Z,6.37
2019-01-16T08:10:42.002Z,6.35
2019-01-16T08:19:42.452Z,6.32
2019-01-16T08:24:06.872Z,6.32
2019-01-16T08:55:36.898Z,6.39
2019-01-16T09:00:06.033Z,6.43
2019-01-16T09:18:23.422Z,6.81
2019-01-16T09:23:11.825Z,6.91
2019-01-16T09:27:47.013Z,6.95
2019-01-16T09:45:48.375Z,6.92
2019-01-16T09:50:09.264Z,6.93
2019-01-16T09:54:47.813Z,6.95
2019-01-16T10:08:11.384Z,7.07
2019-01-16T10:12:37.504Z,7.12
2019-01-16T10:17:00.711Z,7.20
2019-01-16T10:21:42.986Z,7.29
2019-01-16T10:26:20.944Z,7.30
2019-01-16T10:31:02.400Z,7.29
2019-01-16T10:35:51.436Z,7.29
2019-01-16T10:40:16.474Z,7.28
2019-01-16T10:49:07.647Z,7.33
2019-01-16T10:53:36.875Z,7.34
2019-01-16T11:02:21.762Z,7.45
2019-01-16T11:06:43.742Z,7.47
2019-01-16T11:11:00.747Z,7.48
2019-01-16T11:15:52.318Z,7.50
2019-01-16T11:20:14.243Z,7.60
2019-01-16T11:24:56.568Z,7.68
2019-01-16T11:29:18.518Z,7.77
2019-01-16T11:47:38.352Z,7.87
2019-01-16T11:52:07.713Z,7.90
2019-01-16T11:56:34.045Z,7.91
2019-01-16T12:05:57.650Z,7.88
2019-01-16T12:10:21.942Z,7.83
2019-01-16T12:15:13.051Z,7.82
2019-01-16T12:19:44.068Z,7.83
2019-01-16T12:24:22.477Z,7.83
2019-01-16T12:28:44.206Z,7.78
2019-01-16T12:33:35.657Z,7.82
2019-01-16T12:38:07.975Z,7.84
2019-01-16T12:42:46.386Z,7.90
2019-01-16T12:47:12.416Z,7.92
2019-01-16T12:51:33.698Z,7.91
2019-01-16T12:56:28.532Z,7.87
2019-01-16T13:01:09.363Z,7.91
2019-01-16T13:05:32.588Z,7.92
2019-01-16T13:09:48.301Z,7.96
2019-01-16T13:14:30.177Z,7.99
2019-01-16T13:19:11.481Z,8.00
2019-01-16T13:24:02.619Z,8.00
2019-01-16T13:28:31.897Z,8.04
2019-01-16T13:32:54.623Z,8.11
2019-01-16T13:37:39.143Z,8.09
2019-01-16T13:41:54.767Z,8.04
2019-01-16T13:46:26.969Z,8.03
2019-01-16T13:50:48.861Z,8.04
2019-01-16T13:55:11.277Z,8.02
2019-01-16T13:59:33.548Z,8.05
2019-01-16T14:04:03.841Z,8.06
2019-01-16T14:08:25.496Z,8.07
2019-01-16T14:12:57.825Z,8.06
2019-01-16T14:17:09.419Z,8.09
2019-01-16T14:21:23.932Z,8.15
2019-01-16T14:25:45.769Z,8.18
2019-01-16T14:30:12.234Z,8.21
2019-01-16T14:34:37.766Z,8.21
2019-01-16T14:39:04.040Z,8.18
2019-01-16T14:43:39.265Z,8.20
2019-01-16T14:48:02.841Z,8.21
2019-01-16T14:52:24.664Z,8.23
2019-01-16T14:56:42.768Z,8.35
2019-01-16T15:01:04.647Z,8.33
2019-01-16T15:05:20.505Z,8.24
2019-01-16T15:09:42.520Z,8.23
2019-01-16T15:14:05.784Z,8.24
2019-01-16T15:18:29.007Z,8.24
2019-01-16T15:22:44.544Z,8.22
2019-01-16T15:27:06.456Z,8.20
2019-01-16T15:31:28.621Z,8.29
2019-01-16T15:35:50.998Z,8.23
2019-01-16T15:40:23.210Z,8.16
2019-01-16T15:44:43.408Z,8.09
2019-01-16T15:49:05.350Z,8.03
2019-01-16T15:53:32.375Z,7.99
2019-01-16T15:58:05.201Z,7.96
2019-01-16T16:02:28.195Z,7.89
2019-01-16T16:06:50.437Z,7.86
2019-01-16T16:11:29.350Z,7.73
2019-01-16T16:15:55.430Z,7.54
2019-01-16T16:20:23.456Z,7.46
2019-01-16T16:24:50.167Z,7.42
2019-01-16T16:29:17.144Z,7.42
2019-01-16T16:33:45.404Z,7.39
2019-01-16T16:38:25.063Z,7.43
2019-01-16T16:42:46.802Z,7.42
2019-01-16T16:47:13.881Z,7.38
2019-01-16T16:51:43.279Z,7.38
2019-01-16T16:56:10.878Z,7.37
2019-01-16T17:00:31.630Z,7.31
2019-01-16T17:04:53.442Z,7.32
2019-01-16T17:09:19.600Z,7.27
2019-01-16T17:13:48.125Z,7.13
2019-01-16T17:18:00.330Z,7.04
2019-01-16T17:22:32.258Z,6.92
2019-01-16T17:26:55.990Z,6.85
2019-01-16T17:31:18.142Z,6.78
2019-01-16T17:35:39.619Z,6.76
2019-01-16T17:40:18.310Z,6.77
2019-01-16T17:44:44.629Z,6.77
2019-01-16T17:49:06.769Z,6.78
2019-01-16T17:53:28.654Z,6.74
2019-01-16T17:57:50.448Z,6.72
2019-01-16T18:02:13.583Z,6.58
2019-01-16T18:06:31.165Z,6.47
2019-01-16T18:10:48.075Z,6.41
2019-01-16T18:15:04.355Z,6.35
2019-01-16T18:19:36.646Z,6.28
2019-01-16T18:24:06.727Z,6.09
2019-01-16T18:28:38.718Z,5.95
2019-01-16T18:33:00.577Z,5.83
2019-01-16T18:37:35.667Z,5.82
2019-01-16T18:42:08.001Z,5.81
2019-01-16T18:46:34.576Z,5.79
2019-01-16T18:50:57.775Z,5.74
2019-01-16T18:55:16.861Z,5.72
2019-01-16T18:59:52.026Z,5.66
2019-01-16T19:04:07.433Z,5.59
2019-01-16T19:08:29.373Z,5.49
2019-01-16T19:12:45.839Z,5.42
2019-01-16T19:17:03.648Z,5.35
2019-01-16T19:21:39.034Z,5.32
2019-01-16T19:26:01.272Z,5.31
2019-01-16T19:30:29.798Z,5.31
2019-01-16T19:34:39.036Z,5.33
2019-01-16T19:39:11.246Z,5.32
2019-01-16T19:43:32.869Z,5.30
2019-01-16T19:47:55.366Z,5.31
2019-01-16T19:52:08.996Z,5.32
2019-01-16T19:56:23.847Z,5.33
2019-01-16T20:01:02.014Z,5.27
2019-01-16T20:05:21.447Z,5.23
2019-01-16T20:09:48.463Z,5.15
2019-01-16T20:14:14.357Z,5.07
2019-01-16T20:18:30.014Z,5.03
2019-01-16T20:22:51.849Z,5.01
2019-01-16T20:27:17.983Z,5.02
2019-01-16T20:31:39.795Z,5.00
2019-01-16T20:36:14.827Z,5.00
2019-01-16T20:40:26.582Z,4.95
2019-01-16T20:44:43.348Z,4.86
2019-01-16T20:48:58.591Z,4.81
2019-01-16T20:53:17.884Z,4.80
2019-01-16T20:57:50.702Z,4.81
2019-01-16T21:02:13.981Z,4.77
2019-01-16T21:06:44.714Z,4.68
2019-01-16T21:11:31.038Z,4.65
2019-01-16T21:15:44.833Z,4.57
2019-01-16T21:20:07.956Z,4.53
2019-01-16T21:24:31.138Z,4.53
2019-01-16T21:28:56.126Z,4.50
2019-01-16T21:33:15.816Z,4.47
2019-01-16T21:37:27.409Z,4.42
2019-01-16T21:41:51.441Z,4.33
2019-01-16T21:46:13.347Z,4.24
2019-01-16T21:50:51.768Z,4.12
2019-01-16T21:55:20.717Z,4.06
2019-01-16T21:59:41.839Z,4.02
2019-01-16T22:04:03.669Z,3.84
2019-01-16T22:08:26.763Z,3.64
2019-01-16T22:12:48.254Z,3.41
2019-01-16T22:17:10.040Z,3.18
2019-01-16T22:21:34.201Z,3.11
2019-01-16T22:25:50.124Z,3.06
2019-01-16T22:30:19.254Z,3.07
2019-01-16T22:34:35.894Z,3.15
2019-01-16T22:38:59.024Z,3.19
2019-01-16T22:43:22.205Z,3.25
2019-01-16T22:48:00.585Z,3.25
2019-01-16T22:52:23.023Z,3.24
2019-01-16T22:56:49.013Z,3.17
2019-01-16T23:01:02.250Z,3.11
2019-01-16T23:05:27.169Z,3.06
2019-01-16T23:09:57.120Z,3.08
2019-01-16T23:14:26.555Z,3.10
2019-01-16T23:18:38.743Z,3.10
2019-01-16T23:23:04.674Z,3.03
2019-01-16T23:27:26.530Z,3.03
2019-01-16T23:31:37.310Z,3.01
2019-01-16T23:36:01.688Z,2.97
2019-01-16T23:40:29.004Z,2.85
2019-01-16T23:44:57.439Z,2.76
2019-01-16T23:49:19.167Z,2.74
2019-01-16T23:53:41.070Z,2.71
2019-01-16T23:58:13.132Z,2.60
